createdAt,value
2023-05-12T00:00:57.887Z,100694.09
2023-05-12T00:01:59.961Z,100693.34
2023-05-12T00:04:11.859Z,100690.78
2023-05-12T00:05:14.083Z,100694.59
2023-05-12T00:07:26.399Z,100694.81
2023-05-12T00:08:28.630Z,100689.88
2023-05-12T00:09:30.748Z,100703.36
2023-05-12T00:10:32.909Z,100696.33
2023-05-12T00:11:36.981Z,100697.29
2023-05-12T00:12:39.259Z,100692.05
2023-05-12T00:13:41.368Z,100695.00
2023-05-12T00:14:44.600Z,100695.10
2023-05-12T00:15:46.701Z,100698.63
2023-05-12T00:16:49.059Z,100689.75
2023-05-12T00:17:51.667Z,100694.25
2023-05-12T00:18:54.118Z,100693.39
2023-05-12T00:19:56.215Z,100694.38
2023-05-12T00:20:59.591Z,100702.41
2023-05-12T00:22:02.746Z,100698.16
2023-05-12T00:23:04.748Z,100696.34
2023-05-12T00:24:08.144Z,100698.16
2023-05-12T00:25:10.361Z,100697.41
2023-05-12T00:26:13.712Z,100700.09
2023-05-12T00:27:17.626Z,100697.55
2023-05-12T00:28:20.312Z,100697.69
2023-05-12T00:29:22.761Z,100695.97
2023-05-12T00:30:25.119Z,100699.61
2023-05-12T00:31:28.952Z,100697.92
2023-05-12T00:32:31.384Z,100698.89
2023-05-12T00:33:33.779Z,100704.38
2023-05-12T00:34:35.966Z,100703.52
2023-05-12T00:35:38.536Z,100703.52
2023-05-12T00:36:40.908Z,100702.91
2023-05-12T00:37:44.386Z,100700.38
2023-05-12T00:38:46.718Z,100704.86
2023-05-12T00:39:49.173Z,100704.14
2023-05-12T00:40:52.486Z,100706.92
2023-05-12T00:41:56.532Z,100709.59
2023-05-12T00:43:00.196Z,100713.26
2023-05-12T00:44:02.669Z,100708.02
2023-05-12T00:46:17.079Z,100714.70
2023-05-12T00:47:19.839Z,100713.12
2023-05-12T00:48:22.318Z,100709.73
2023-05-12T00:50:35.632Z,100713.50
2023-05-12T00:51:38.177Z,100713.73
2023-05-12T00:52:41.388Z,100715.69
2023-05-12T00:53:50.069Z,100711.16
2023-05-12T00:55:57.801Z,100710.59
2023-05-12T00:57:02.413Z,100719.56
2023-05-12T00:58:06.814Z,100711.67
2023-05-12T00:59:11.318Z,100716.40
2023-05-12T01:00:16.931Z,100709.34
2023-05-12T01:02:36.673Z,100707.91
2023-05-12T01:04:49.560Z,100710.06
2023-05-12T01:06:00.414Z,100706.62
2023-05-12T01:07:22.909Z,100708.57
2023-05-12T01:08:26.562Z,100711.24
2023-05-12T01:09:29.594Z,100711.01
2023-05-12T01:10:33.968Z,100703.84
2023-05-12T01:11:37.701Z,100714.41
2023-05-12T01:12:40.898Z,100711.63
2023-05-12T01:13:43.544Z,100706.08
2023-05-12T01:14:46.586Z,100711.29
2023-05-12T01:15:50.427Z,100716.50
2023-05-12T01:16:55.638Z,100710.33
2023-05-12T01:19:13.566Z,100711.41
2023-05-12T01:20:18.549Z,100714.17
2023-05-12T01:21:21.748Z,100710.64
2023-05-12T01:22:25.858Z,100711.63
2023-05-12T01:23:32.141Z,100702.75
2023-05-12T01:25:49.265Z,100710.06
2023-05-12T01:26:51.661Z,100713.68
2023-05-12T01:27:55.243Z,100710.28
2023-05-12T01:28:57.870Z,100717.31
2023-05-12T01:30:04.838Z,100709.42
2023-05-12T01:31:09.014Z,100708.57
2023-05-12T01:32:14.806Z,100707.71
2023-05-12T01:33:17.289Z,100715.00
2023-05-12T01:34:20.268Z,100714.28
2023-05-12T01:36:33.782Z,100709.91
2023-05-12T01:37:36.046Z,100717.05
2023-05-12T01:38:40.428Z,100716.20
2023-05-12T01:39:43.245Z,100719.73
2023-05-12T01:40:47.473Z,100716.09
2023-05-12T01:41:50.599Z,100716.09
2023-05-12T01:42:52.995Z,100720.59
2023-05-12T01:43:55.147Z,100716.20
2023-05-12T01:46:07.016Z,100714.77
2023-05-12T01:47:10.080Z,100719.23
2023-05-12T01:48:14.627Z,100721.05
2023-05-12T01:49:17.435Z,100721.19
2023-05-12T01:50:21.171Z,100715.12
2023-05-12T01:51:23.880Z,100712.45
2023-05-12T01:52:26.944Z,100717.03
2023-05-12T01:53:29.534Z,100712.68
2023-05-12T01:54:31.930Z,100717.16
2023-05-12T01:55:34.691Z,100714.59
2023-05-12T01:56:37.791Z,100713.87
2023-05-12T01:57:40.286Z,100721.16
2023-05-12T01:58:42.726Z,100724.78
2023-05-12T01:59:45.541Z,100719.44
2023-05-12T02:00:48.135Z,100716.91
2023-05-12T02:01:51.494Z,100718.59
2023-05-12T02:04:05.088Z,100718.13
2023-05-12T02:05:09.478Z,100715.55
2023-05-12T02:07:21.198Z,100719.11
2023-05-12T02:08:23.364Z,100723.56
2023-05-12T02:09:25.579Z,100726.23
2023-05-12T02:10:29.729Z,100724.42
2023-05-12T02:11:31.933Z,100728.05
2023-05-12T02:12:34.505Z,100730.72
2023-05-12T02:13:36.893Z,100727.19
2023-05-12T02:14:39.459Z,100726.23
2023-05-12T02:15:42.011Z,100724.65
2023-05-12T02:16:45.684Z,100723.66
2023-05-12T02:17:48.367Z,100730.95
2023-05-12T02:18:51.316Z,100727.65
2023-05-12T02:19:54.256Z,100732.27
2023-05-12T02:20:56.688Z,100730.58
2023-05-12T02:21:58.978Z,100723.52
2023-05-12T02:23:01.407Z,100726.06
2023-05-12T02:24:06.544Z,100725.97
2023-05-12T02:25:10.003Z,100725.83
2023-05-12T02:26:12.952Z,100723.89
2023-05-12T02:27:15.212Z,100721.84
2023-05-12T02:28:17.395Z,100722.58
2023-05-12T02:29:19.663Z,100727.59
2023-05-12T02:30:22.062Z,100727.36
2023-05-12T02:31:24.733Z,100727.12
2023-05-12T02:32:26.962Z,100720.69
2023-05-12T02:33:29.418Z,100727.62
2023-05-12T02:34:31.506Z,100730.16
2023-05-12T02:35:33.754Z,100728.20
2023-05-12T02:36:36.621Z,100727.38
2023-05-12T02:37:38.865Z,100721.05
2023-05-12T02:38:41.130Z,100727.25
2023-05-12T02:39:43.732Z,100728.11
2023-05-12T02:40:46.050Z,100724.34
2023-05-12T02:41:48.499Z,100727.74
2023-05-12T02:42:51.298Z,100720.59
2023-05-12T02:43:53.761Z,100724.97
2023-05-12T02:44:57.045Z,100727.64
2023-05-12T02:45:59.685Z,100725.92
2023-05-12T02:47:02.522Z,100733.09
2023-05-12T02:48:06.963Z,100728.47
2023-05-12T02:49:09.326Z,100731.99
2023-05-12T02:50:12.036Z,100729.22
2023-05-12T02:51:14.436Z,100728.37
2023-05-12T02:53:26.632Z,100729.24
2023-05-12T02:54:29.919Z,100728.59
2023-05-12T02:55:32.237Z,100728.83
2023-05-12T02:56:34.480Z,100728.11
2023-05-12T02:57:36.773Z,100726.53
2023-05-12T02:58:39.420Z,100729.43
2023-05-12T02:59:41.658Z,100727.95
2023-05-12T03:00:43.914Z,100730.88
2023-05-12T03:01:46.125Z,100728.31
2023-05-12T03:02:48.619Z,100734.61
2023-05-12T03:03:50.780Z,100727.45
2023-05-12T03:04:53.449Z,100727.45
2023-05-12T03:05:55.723Z,100729.03
2023-05-12T03:06:59.292Z,100726.27
2023-05-12T03:08:01.861Z,100731.48
2023-05-12T03:09:03.916Z,100727.72
2023-05-12T03:11:18.218Z,100727.64
2023-05-12T03:12:20.880Z,100728.47
2023-05-12T03:13:23.364Z,100732.83
2023-05-12T03:14:26.176Z,100730.88
2023-05-12T03:15:28.473Z,100734.31
2023-05-12T03:16:33.252Z,100736.84
2023-05-12T03:17:35.811Z,100732.36
2023-05-12T03:18:38.488Z,100735.89
2023-05-12T03:19:41.290Z,100738.66
2023-05-12T03:20:44.328Z,100737.94
2023-05-12T03:21:46.537Z,100733.69
2023-05-12T03:22:48.860Z,100737.31
2023-05-12T03:23:51.144Z,100746.41
2023-05-12T03:26:22.595Z,100742.19
2023-05-12T03:27:25.034Z,100749.31
2023-05-12T03:28:27.998Z,100747.50
2023-05-12T03:29:30.259Z,100749.31
2023-05-12T03:30:33.266Z,100743.25
2023-05-12T03:31:35.950Z,100752.25
2023-05-12T03:32:38.853Z,100758.55
2023-05-12T03:33:42.480Z,100754.06
2023-05-12T03:34:44.573Z,100756.50
2023-05-12T03:35:47.443Z,100752.84
2023-05-12T03:36:50.496Z,100748.36
2023-05-12T03:37:52.794Z,100753.57
2023-05-12T03:38:55.061Z,100757.95
2023-05-12T03:39:57.148Z,100759.55
2023-05-12T03:42:35.721Z,100758.48
2023-05-12T03:43:37.901Z,100756.87
2023-05-12T03:44:40.285Z,100758.81
2023-05-12T03:45:42.642Z,100765.11
2023-05-12T03:46:45.239Z,100760.62
2023-05-12T03:47:47.690Z,100763.30
2023-05-12T03:48:55.336Z,100763.20
2023-05-12T03:49:57.997Z,100763.92
2023-05-12T03:51:00.490Z,100769.04
2023-05-12T03:52:04.225Z,100770.62
2023-05-12T03:53:06.331Z,100766.14
2023-05-12T03:54:09.776Z,100760.80
2023-05-12T03:55:12.083Z,100762.47
2023-05-12T03:56:15.672Z,100767.81
2023-05-12T03:57:21.712Z,100764.29
2023-05-12T03:58:24.232Z,100767.81
2023-05-12T04:00:42.089Z,100759.65
2023-05-12T04:01:43.939Z,100760.61
2023-05-12T04:02:46.960Z,100762.44
2023-05-12T04:03:49.420Z,100760.53
2023-05-12T04:04:51.725Z,100756.77
2023-05-12T04:06:01.421Z,100759.06
2023-05-12T04:07:04.624Z,100762.34
2023-05-12T04:08:06.725Z,100761.80
2023-05-12T04:09:10.273Z,100759.96
2023-05-12T04:10:12.758Z,100757.18
2023-05-12T04:11:14.925Z,100764.19
2023-05-12T04:12:20.864Z,100763.79
2023-05-12T04:14:42.735Z,100760.50
2023-05-12T04:15:39.508Z,100764.58
2023-05-12T04:16:42.582Z,100760.44
2023-05-12T04:18:56.627Z,100760.89
2023-05-12T04:19:59.109Z,100760.32
2023-05-12T04:21:01.188Z,100766.64
2023-05-12T04:23:13.345Z,100758.00
2023-05-12T04:24:16.271Z,100759.96
2023-05-12T04:25:20.582Z,100763.88
2023-05-12T04:27:34.936Z,100763.11
2023-05-12T04:28:36.981Z,100763.52
2023-05-12T04:29:39.153Z,100760.98
2023-05-12T04:30:43.019Z,100760.98
2023-05-12T04:31:45.613Z,100758.41
2023-05-12T04:32:47.972Z,100758.30
2023-05-12T04:33:50.068Z,100758.30
2023-05-12T04:34:52.663Z,100761.70
2023-05-12T04:35:57.673Z,100764.38
2023-05-12T04:37:01.184Z,100764.38
2023-05-12T04:38:03.614Z,100764.38
2023-05-12T04:39:06.323Z,100768.87
2023-05-12T04:40:09.760Z,100759.02
2023-05-12T04:41:11.902Z,100765.23
2023-05-12T04:42:14.123Z,100764.38
2023-05-12T04:44:20.735Z,100767.91
2023-05-12T04:45:23.380Z,100774.08
2023-05-12T04:46:27.501Z,100769.59
2023-05-12T04:47:30.141Z,100765.23
2023-05-12T04:48:32.408Z,100767.05
2023-05-12T04:49:34.445Z,100768.87
2023-05-12T04:50:36.664Z,100768.87
2023-05-12T04:51:38.936Z,100771.55
2023-05-12T04:52:41.100Z,100768.73
2023-05-12T04:53:43.487Z,100771.41
2023-05-12T04:54:45.840Z,100773.27
2023-05-12T04:55:47.994Z,100767.91
2023-05-12T04:56:51.837Z,100774.94
2023-05-12T04:57:54.143Z,100772.16
2023-05-12T04:58:56.322Z,100770.34
2023-05-12T05:01:08.860Z,100775.28
2023-05-12T05:02:11.496Z,100776.27
2023-05-12T05:03:14.249Z,100778.95
2023-05-12T05:04:16.978Z,100775.41
2023-05-12T05:05:19.526Z,100776.27
2023-05-12T05:06:22.978Z,100776.16
2023-05-12T05:07:25.828Z,100779.66
2023-05-12T05:08:28.970Z,100778.59
2023-05-12T05:09:33.402Z,100773.95
2023-05-12T05:10:36.499Z,100777.84
2023-05-12T05:11:38.786Z,100780.00
2023-05-12T05:12:40.984Z,100776.39
2023-05-12T05:13:43.139Z,100776.14
2023-05-12T05:14:46.138Z,100773.79
2023-05-12T05:17:03.523Z,100768.53
2023-05-12T05:18:06.763Z,100769.98
2023-05-12T05:19:20.254Z,100767.78
2023-05-12T05:20:15.409Z,100771.53
2023-05-12T05:21:17.672Z,100771.80
2023-05-12T05:22:19.934Z,100773.91
2023-05-12T05:23:22.129Z,100768.36
2023-05-12T05:24:25.341Z,100776.26
2023-05-12T05:25:27.650Z,100775.50
2023-05-12T05:26:31.313Z,100771.71
2023-05-12T05:27:41.263Z,100769.09
2023-05-12T05:28:43.695Z,100768.16
2023-05-12T05:29:45.860Z,100775.65
2023-05-12T05:30:49.087Z,100777.69
2023-05-12T05:31:52.517Z,100778.83
2023-05-12T05:32:54.953Z,100777.43
2023-05-12T05:33:57.923Z,100774.32
2023-05-12T05:35:01.361Z,100776.97
2023-05-12T05:36:05.616Z,100773.17
2023-05-12T05:37:07.953Z,100778.31
2023-05-12T05:38:13.254Z,100771.80
2023-05-12T05:39:15.464Z,100771.70
2023-05-12T05:40:19.273Z,100776.66
2023-05-12T05:41:21.879Z,100778.55
2023-05-12T05:42:25.527Z,100772.19
2023-05-12T05:44:58.697Z,100775.10
2023-05-12T05:46:00.802Z,100775.45
2023-05-12T05:47:03.164Z,100771.95
2023-05-12T05:48:06.544Z,100772.83
2023-05-12T05:49:08.876Z,100772.17
2023-05-12T05:50:13.484Z,100772.55
2023-05-12T05:51:16.604Z,100769.65
2023-05-12T05:52:19.033Z,100770.66
2023-05-12T05:53:22.622Z,100771.82
2023-05-12T05:54:25.807Z,100769.22
2023-05-12T05:55:28.006Z,100780.38
2023-05-12T05:56:31.825Z,100773.38
2023-05-12T05:57:34.137Z,100772.45
2023-05-12T05:58:37.498Z,100777.83
2023-05-12T06:00:49.427Z,100771.28
2023-05-12T06:01:51.368Z,100779.13
2023-05-12T06:02:53.521Z,100776.77
2023-05-12T06:03:56.370Z,100778.94
2023-05-12T06:04:58.795Z,100783.30
2023-05-12T06:06:01.029Z,100778.42
2023-05-12T06:07:04.819Z,100780.88
2023-05-12T06:09:16.966Z,100777.73
2023-05-12T06:10:20.035Z,100782.51
2023-05-12T06:11:24.141Z,100781.67
2023-05-12T06:12:26.832Z,100785.38
2023-05-12T06:13:29.593Z,100783.50
2023-05-12T06:14:31.955Z,100776.19
2023-05-12T06:15:34.367Z,100776.83
2023-05-12T06:16:38.304Z,100785.42
2023-05-12T06:17:40.482Z,100774.05
2023-05-12T06:18:44.143Z,100781.61
2023-05-12T06:19:48.609Z,100774.78
2023-05-12T06:20:51.976Z,100790.42
2023-05-12T06:21:54.201Z,100783.27
2023-05-12T06:22:56.773Z,100781.53
2023-05-12T06:23:59.587Z,100775.23
2023-05-12T06:26:12.075Z,100778.05
2023-05-12T06:27:15.187Z,100785.67
2023-05-12T06:28:17.824Z,100782.92
2023-05-12T06:29:22.238Z,100779.41
2023-05-12T06:30:25.142Z,100785.59
2023-05-12T06:31:29.323Z,100787.37
2023-05-12T06:32:31.733Z,100789.00
2023-05-12T06:33:34.459Z,100792.17
2023-05-12T06:34:36.630Z,100786.53
2023-05-12T06:35:38.700Z,100790.69
2023-05-12T06:36:43.837Z,100788.47
2023-05-12T06:37:46.198Z,100798.84
2023-05-12T06:38:50.345Z,100791.38
2023-05-12T06:39:53.109Z,100796.39
2023-05-12T06:40:55.666Z,100798.66
2023-05-12T06:41:59.800Z,100799.81
2023-05-12T06:44:11.868Z,100797.98
2023-05-12T06:45:14.368Z,100795.23
2023-05-12T06:46:18.411Z,100793.82
2023-05-12T06:47:20.663Z,100797.66
2023-05-12T06:48:24.549Z,100794.41
2023-05-12T06:49:28.715Z,100795.56
2023-05-12T06:50:31.361Z,100792.18
2023-05-12T06:51:33.573Z,100796.87
2023-05-12T06:52:38.535Z,100795.33
2023-05-12T06:53:41.125Z,100793.92
2023-05-12T06:54:43.406Z,100795.23
2023-05-12T06:55:45.578Z,100791.98
2023-05-12T06:56:48.179Z,100793.13
2023-05-12T06:57:50.217Z,100792.27
2023-05-12T06:58:52.411Z,100791.12
2023-05-12T06:59:54.909Z,100789.84
2023-05-12T07:00:58.538Z,100794.77
2023-05-12T07:02:01.240Z,100791.33
2023-05-12T07:03:03.928Z,100789.59
2023-05-12T07:04:07.017Z,100787.88
2023-05-12T07:05:11.687Z,100786.13
2023-05-12T07:06:14.005Z,100784.37
2023-05-12T07:07:16.313Z,100794.21
2023-05-12T07:08:19.548Z,100787.06
2023-05-12T07:09:21.885Z,100792.23
2023-05-12T07:10:27.282Z,100790.16
2023-05-12T07:11:29.697Z,100792.77
2023-05-12T07:12:32.529Z,100792.52
2023-05-12T07:13:36.087Z,100788.08
2023-05-12T07:14:38.454Z,100789.53
2023-05-12T07:15:41.807Z,100784.02
2023-05-12T07:16:44.561Z,100788.48
2023-05-12T07:17:47.262Z,100779.45
2023-05-12T07:18:50.054Z,100791.83
2023-05-12T07:19:52.197Z,100789.99
2023-05-12T07:20:54.434Z,100794.44
2023-05-12T07:21:57.380Z,100790.92
2023-05-12T07:24:08.844Z,100787.58
2023-05-12T07:25:14.073Z,100786.89
2023-05-12T07:26:16.222Z,100789.45
2023-05-12T07:27:20.058Z,100788.63
2023-05-12T07:28:29.981Z,100786.79
2023-05-12T07:29:32.647Z,100782.25
2023-05-12T07:30:38.046Z,100784.79
2023-05-12T07:31:41.410Z,100785.84
2023-05-12T07:32:45.246Z,100792.30
2023-05-12T07:33:48.195Z,100786.40
2023-05-12T07:34:50.544Z,100785.56
2023-05-12T07:35:53.712Z,100786.74
2023-05-12T07:36:59.207Z,100792.31
2023-05-12T07:38:01.418Z,100792.49
2023-05-12T07:39:03.628Z,100782.85
2023-05-12T07:40:07.673Z,100781.33
2023-05-12T07:41:09.947Z,100786.92
2023-05-12T07:42:12.892Z,100784.54
2023-05-12T07:43:15.499Z,100781.31
2023-05-12T07:44:19.286Z,100780.63
2023-05-12T07:45:23.413Z,100783.67
2023-05-12T07:46:25.926Z,100785.73
2023-05-12T07:47:30.003Z,100781.48
2023-05-12T07:48:33.406Z,100783.67
2023-05-12T07:49:40.171Z,100785.02
2023-05-12T07:50:42.469Z,100774.52
2023-05-12T07:51:51.014Z,100779.40
2023-05-12T07:52:56.468Z,100776.84
2023-05-12T07:54:01.359Z,100783.59
2023-05-12T07:55:06.073Z,100782.05
2023-05-12T07:56:10.354Z,100783.41
2023-05-12T07:57:21.116Z,100780.16
2023-05-12T07:58:24.592Z,100784.23
2023-05-12T07:59:27.235Z,100781.98
2023-05-12T08:00:33.314Z,100786.05
2023-05-12T08:01:37.627Z,100775.70
2023-05-12T08:02:41.290Z,100778.73
2023-05-12T08:03:44.893Z,100778.22
2023-05-12T08:04:47.290Z,100789.37
2023-05-12T08:05:49.354Z,100786.31
2023-05-12T08:06:52.615Z,100777.83
2023-05-12T08:07:54.708Z,100777.47
2023-05-12T08:10:09.631Z,100775.52
2023-05-12T08:11:11.581Z,100776.58
2023-05-12T08:12:18.105Z,100777.92
2023-05-12T08:14:34.163Z,100769.48
2023-05-12T08:15:37.199Z,100771.23
2023-05-12T08:16:41.186Z,100774.41
2023-05-12T08:17:47.481Z,100767.62
2023-05-12T08:18:49.768Z,100765.39
2023-05-12T08:19:52.136Z,100765.86
2023-05-12T08:20:54.687Z,100764.65
2023-05-12T08:21:57.160Z,100771.62
2023-05-12T08:22:59.259Z,100770.41
2023-05-12T08:24:03.058Z,100777.34
2023-05-12T08:25:09.666Z,100771.55
2023-05-12T08:26:12.181Z,100764.06
2023-05-12T08:27:16.297Z,100773.71
2023-05-12T08:28:18.512Z,100761.15
2023-05-12T08:29:21.770Z,100769.13
2023-05-12T08:30:24.377Z,100771.84
2023-05-12T08:31:26.562Z,100769.30
2023-05-12T08:34:02.727Z,100758.53
2023-05-12T08:34:56.770Z,100770.47
2023-05-12T08:36:00.929Z,100768.44
2023-05-12T08:37:05.261Z,100771.98
2023-05-12T08:38:07.408Z,100769.09
2023-05-12T08:39:09.564Z,100763.47
2023-05-12T08:41:53.821Z,100756.75
2023-05-12T08:43:11.439Z,100758.04
2023-05-12T08:44:14.374Z,100759.73
2023-05-12T08:45:18.307Z,100766.02
2023-05-12T08:46:22.182Z,100767.03
2023-05-12T08:47:25.760Z,100769.75
2023-05-12T08:48:29.434Z,100754.47
2023-05-12T08:49:32.889Z,100760.95
2023-05-12T08:50:38.290Z,100759.25
2023-05-12T08:51:41.467Z,100750.09
2023-05-12T08:52:50.306Z,100756.38
2023-05-12T08:53:55.577Z,100765.17
2023-05-12T08:55:00.820Z,100755.98
2023-05-12T08:57:23.657Z,100762.50
2023-05-12T08:59:36.223Z,100759.47
2023-05-12T09:00:38.893Z,100757.58
2023-05-12T09:01:43.576Z,100767.76
2023-05-12T09:02:54.558Z,100757.09
2023-05-12T09:04:00.339Z,100761.64
2023-05-12T09:06:19.378Z,100751.40
2023-05-12T09:07:21.916Z,100759.13
2023-05-12T09:08:31.484Z,100757.23
2023-05-12T09:09:36.960Z,100758.08
2023-05-12T09:10:41.164Z,100760.66
2023-05-12T09:11:44.653Z,100763.38
2023-05-12T09:15:22.745Z,100744.59
2023-05-12T09:16:29.728Z,100749.44
2023-05-12T09:17:32.026Z,100744.83
2023-05-12T09:19:53.298Z,100737.58
2023-05-12T09:21:00.376Z,100737.82
2023-05-12T09:22:02.601Z,100742.40
2023-05-12T09:23:16.470Z,100740.53
2023-05-12T09:24:19.645Z,100738.50
2023-05-12T09:25:25.450Z,100744.75
2023-05-12T09:26:28.466Z,100742.89
2023-05-12T09:27:32.452Z,100740.00
2023-05-12T09:28:38.362Z,100747.11
2023-05-12T09:29:59.052Z,100740.00
2023-05-12T09:30:54.095Z,100743.54
2023-05-12T09:33:10.750Z,100737.22
2023-05-12T09:34:12.670Z,100736.97
2023-05-12T09:35:14.791Z,100734.45
2023-05-12T09:36:22.916Z,100733.60
2023-05-12T09:37:31.436Z,100740.25
2023-05-12T09:38:37.106Z,100726.02
2023-05-12T09:39:40.237Z,100734.16
2023-05-12T09:40:45.154Z,100734.33
2023-05-12T09:43:11.530Z,100731.09
2023-05-12T09:44:16.827Z,100729.13
2023-05-12T09:45:23.777Z,100727.99
2023-05-12T09:46:26.488Z,100735.48
2023-05-12T09:48:48.499Z,100724.42
2023-05-12T09:49:51.698Z,100725.41
2023-05-12T09:50:55.575Z,100720.34
2023-05-12T09:53:07.789Z,100719.42
2023-05-12T09:54:09.787Z,100719.19
2023-05-12T09:55:12.449Z,100730.05
2023-05-12T09:56:16.344Z,100720.20
2023-05-12T09:57:20.902Z,100735.47
2023-05-12T09:58:23.775Z,100728.54
2023-05-12T09:59:29.428Z,100729.55
2023-05-12T10:00:41.199Z,100735.17
2023-05-12T10:01:38.046Z,100724.48
2023-05-12T10:02:42.173Z,100716.54
2023-05-12T10:03:55.589Z,100719.25
2023-05-12T10:05:02.760Z,100708.41
2023-05-12T10:06:11.983Z,100716.73
2023-05-12T10:07:17.908Z,100710.62
2023-05-12T10:09:41.762Z,100712.26
2023-05-12T10:10:45.659Z,100705.75
2023-05-12T10:11:52.032Z,100718.45
2023-05-12T10:12:54.576Z,100719.47
2023-05-12T10:13:57.446Z,100715.94
2023-05-12T10:15:00.379Z,100706.95
2023-05-12T10:16:04.160Z,100707.31
2023-05-12T10:17:08.228Z,100709.36
2023-05-12T10:18:10.682Z,100698.67
2023-05-12T10:19:13.927Z,100701.58
2023-05-12T10:20:17.211Z,100702.59
2023-05-12T10:21:22.616Z,100699.72
2023-05-12T10:22:27.519Z,100706.34
2023-05-12T10:23:29.721Z,100700.08
2023-05-12T10:24:32.286Z,100701.94
2023-05-12T10:25:54.438Z,100695.66
2023-05-12T10:26:58.121Z,100702.09
2023-05-12T10:28:01.654Z,100709.22
2023-05-12T10:29:03.705Z,100699.39
2023-05-12T10:30:09.527Z,100702.09
2023-05-12T10:31:12.737Z,100700.43
2023-05-12T10:32:15.319Z,100699.74
2023-05-12T10:33:17.606Z,100699.91
2023-05-12T10:34:20.478Z,100693.82
2023-05-12T10:36:48.716Z,100691.09
2023-05-12T10:37:50.710Z,100695.54
2023-05-12T10:38:53.792Z,100694.53
2023-05-12T10:39:55.914Z,100690.12
2023-05-12T10:41:00.120Z,100704.87
2023-05-12T10:42:07.144Z,100686.09
2023-05-12T10:43:13.035Z,100688.96
2023-05-12T10:44:19.248Z,100690.00
2023-05-12T10:45:23.307Z,100688.30
2023-05-12T10:46:27.909Z,100691.02
2023-05-12T10:47:37.714Z,100685.78
2023-05-12T10:48:52.187Z,100683.92
2023-05-12T10:49:57.664Z,100685.95
2023-05-12T10:51:07.647Z,100688.66
2023-05-12T10:52:15.196Z,100691.56
2023-05-12T10:53:20.852Z,100684.63
2023-05-12T10:54:25.447Z,100688.34
2023-05-12T10:56:44.106Z,100685.78
2023-05-12T10:57:49.212Z,100678.41
2023-05-12T10:59:15.291Z,100680.61
2023-05-12T11:00:21.529Z,100678.75
2023-05-12T11:01:25.412Z,100672.48
2023-05-12T11:02:30.830Z,100664.35
2023-05-12T11:03:35.515Z,100663.50
2023-05-12T11:04:51.183Z,100680.80
2023-05-12T11:06:01.376Z,100683.67
2023-05-12T11:07:06.012Z,100673.88
2023-05-12T11:08:09.437Z,100675.73
2023-05-12T11:09:13.393Z,100679.45
2023-05-12T11:10:17.511Z,100682.36
2023-05-12T11:11:20.605Z,100672.72
2023-05-12T11:12:24.228Z,100676.43
2023-05-12T11:13:26.326Z,100674.73
2023-05-12T11:14:28.885Z,100675.77
2023-05-12T11:15:31.521Z,100669.50
2023-05-12T11:16:34.784Z,100673.06
2023-05-12T11:17:39.097Z,100677.44
2023-05-12T11:18:41.860Z,100665.78
2023-05-12T11:19:46.810Z,100669.31
2023-05-12T11:20:50.906Z,100666.60
2023-05-12T11:21:53.952Z,100670.16
2023-05-12T11:22:56.492Z,100667.64
2023-05-12T11:24:00.567Z,100669.31
2023-05-12T11:25:10.031Z,100672.02
2023-05-12T11:26:18.450Z,100664.74
2023-05-12T11:27:29.965Z,100665.59
2023-05-12T11:28:41.144Z,100655.61
2023-05-12T11:29:44.951Z,100666.45
2023-05-12T11:30:54.987Z,100663.73
2023-05-12T11:31:58.347Z,100660.02
2023-05-12T11:33:02.044Z,100668.80
2023-05-12T11:34:13.181Z,100669.81
2023-05-12T11:35:14.901Z,100662.34
2023-05-12T11:36:17.211Z,100662.34
2023-05-12T11:37:19.455Z,100665.74
2023-05-12T11:38:21.536Z,100665.74
2023-05-12T11:39:28.610Z,100671.16
2023-05-12T11:40:30.723Z,100661.99
2023-05-12T11:41:33.173Z,100664.05
2023-05-12T11:42:35.537Z,100657.12
2023-05-12T11:43:37.710Z,100657.47
2023-05-12T11:44:47.181Z,100656.80
2023-05-12T11:45:50.224Z,100662.58
2023-05-12T11:47:04.569Z,100661.06
2023-05-12T11:48:11.811Z,100656.84
2023-05-12T11:49:14.424Z,100663.46
2023-05-12T11:50:21.697Z,100660.06
2023-05-12T11:51:25.947Z,100654.83
2023-05-12T11:52:28.295Z,100658.74
2023-05-12T11:53:31.426Z,100663.50
2023-05-12T11:54:33.628Z,100660.09
2023-05-12T11:55:35.770Z,100657.58
2023-05-12T11:56:38.270Z,100661.45
2023-05-12T11:57:40.354Z,100657.23
2023-05-12T11:58:46.170Z,100662.14
2023-05-12T11:59:52.389Z,100657.92
2023-05-12T12:00:55.683Z,100655.75
2023-05-12T12:01:59.569Z,100657.76
2023-05-12T12:04:40.260Z,100659.78
2023-05-12T12:05:45.988Z,100654.07
2023-05-12T12:06:48.169Z,100661.53
2023-05-12T12:07:50.198Z,100660.02
2023-05-12T12:08:57.783Z,100656.80
2023-05-12T12:10:17.977Z,100657.80
2023-05-12T12:11:21.572Z,100652.73
2023-05-12T12:13:33.294Z,100649.19
2023-05-12T12:14:38.912Z,100652.60
2023-05-12T12:15:41.124Z,100651.94
2023-05-12T12:16:43.593Z,100655.65
2023-05-12T12:17:45.798Z,100653.95
2023-05-12T12:18:49.641Z,100650.39
2023-05-12T12:19:51.957Z,100650.39
2023-05-12T12:20:54.292Z,100649.57
2023-05-12T12:21:59.072Z,100656.66
2023-05-12T12:23:02.094Z,100644.98
2023-05-12T12:24:07.143Z,100644.98
2023-05-12T12:25:17.936Z,100648.53
2023-05-12T12:26:27.722Z,100646.52
2023-05-12T12:27:31.506Z,100642.78
2023-05-12T12:28:39.429Z,100645.48
2023-05-12T12:29:42.794Z,100647.00
2023-05-12T12:30:47.539Z,100641.44
2023-05-12T12:31:50.654Z,100643.10
2023-05-12T12:32:57.051Z,100634.98
2023-05-12T12:34:01.837Z,100640.39
2023-05-12T12:36:23.070Z,100631.41
2023-05-12T12:37:25.845Z,100636.16
2023-05-12T12:38:28.504Z,100635.80
2023-05-12T12:39:31.871Z,100629.04
2023-05-12T12:40:41.600Z,100632.41
2023-05-12T12:41:45.722Z,100625.98
2023-05-12T12:42:48.193Z,100634.93
2023-05-12T12:43:52.177Z,100627.84
2023-05-12T12:44:57.725Z,100636.98
2023-05-12T12:46:01.834Z,100631.75
2023-05-12T12:47:12.218Z,100622.94
2023-05-12T12:48:14.536Z,100632.76
2023-05-12T12:49:17.149Z,100622.78
2023-05-12T12:51:45.603Z,100626.97
2023-05-12T12:52:40.964Z,100625.83
2023-05-12T12:53:44.169Z,100622.27
2023-05-12T12:54:46.728Z,100620.60
2023-05-12T12:55:49.324Z,100622.46
2023-05-12T12:56:52.538Z,100622.61
2023-05-12T12:57:54.632Z,100620.95
2023-05-12T12:58:57.742Z,100615.88
2023-05-12T12:59:59.987Z,100618.93
2023-05-12T13:01:02.458Z,100622.98
2023-05-12T13:02:07.899Z,100617.09
2023-05-12T13:04:21.572Z,100622.83
2023-05-12T13:05:23.665Z,100621.83
2023-05-12T13:06:27.329Z,100619.47
2023-05-12T13:07:29.936Z,100623.02
2023-05-12T13:08:32.003Z,100620.50
2023-05-12T13:09:34.643Z,100618.14
2023-05-12T13:10:38.848Z,100626.25
2023-05-12T13:11:40.953Z,100626.44
2023-05-12T13:12:43.705Z,100620.18
2023-05-12T13:13:46.775Z,100620.18